Imperial, California
Current Conditions -  °F | °C
As of 2:53 PM on Thursday 18 Dec 2014 (Local Time) from KIPL Reporting Station
Clear Clear  
Wind Chill: 18°   Ceiling: Unl
Heat Index: 18°   Visibility: 10mi
Dew Point:   Wind: 7mph
Humidity: 45%   Direction: 330°NNW
Pressure: 30.11"   Gusts: NA
Location:  32.85°N, 115.57°W
Report Text: KIPL 182253Z AUTO 33006KT 10SM CLR 18/06 A3011 RMK AO2 SLP195 T01830061
Loading
Personal Weather Stations






























Interactive Weather Map New forecast layout! Learn more

10-Day Weather Forecast

Advertisements
Track Severe Weather on mobile